General Aviation Weather

Text Reports

Enter one or more of the following location identifiers separated by a space:

Zip Code, Four-Character ICAO or Three-Character IATA airport codes.

METAR - Aviation Routine Weather Report
KF05 - Vernon, Texas
Updated at 6:55 PM GMT on July 30, 2014 (1:55 PM CDT):
METAR KF05 301855Z AUTO 13007KT 10SM BKN110 26/21 A2999 RMK AO1 T02570211
TAF - Terminal Area Forecast
KF05 - Vernon, Texas
Updated at 6:55 PM GMT on July 30, 2014 (1:55 PM CDT):
No TAF is currently available for this location.
Decoded:
No decoded TAF is available.
PIREP - Pilot Weather Report
KF05 - Vernon, Texas
Updated at 6:55 PM GMT on July 30, 2014 (1:55 PM CDT):
No PIREP is currently available for this location.
AIRMET - Airmens Meteorological Information
KF05 - Vernon, Texas
Updated at 6:55 PM GMT on July 30, 2014 (1:55 PM CDT):
No AIRMET is currently available for this location.
SIGMET - Significant Meteorological Information
KF05 - Vernon, Texas
Updated at 6:55 PM GMT on July 30, 2014 (1:55 PM CDT):
No SIGMET is currently available for this location.
NOTAM - Notice to Airmen
KF05 - Vernon, Texas
Updated at 6:55 PM GMT on July 30, 2014 (1:55 PM CDT):
No NOTAM is currently available for this location.
Forecast Area
KF05 - Vernon, Texas
Updated at 6:55 PM GMT on July 30, 2014 (1:55 PM CDT):
No NOTAM is currently available for this location.
Aviation Weather Maps